Hlavní strana
METAR-TAF:

METAR-TAF

Letiště :

Letiště Maribor

Maribor, Slovinsko

zeměpisná šířka: 46-29N, zeměpisná délka: 015-41E, výška: 264 m

Aktuální stav počasí

Zpráva byla vytvořena před 19 minutami, v 09:00 UTC
vítr z různých směrů 2 kt
Teplota 1°C
Vlhkost vzduchu 69%
Tlak 1021 hPa
Viditelnost 10 km a více
Žádná oblačnost pod 1500 m, nevyskytují se cumulonimby.

METAR: LJMB 110900Z VRB02KT CAVOK 01/M04 Q1021

Čas: 10:19 (09:19 UTC)

Předpověď počasí

Zpráva byla vytvořena před 1 hodinou a 19 minutami, v 08:00 UTC
Předpověď platná od 11 v 09 UTC do 12 v 09 UTC
Severní vítr 5 kt
Viditelnost 10 km a více
Žádná oblačnost pod 1500 m, nevyskytují se cumulonimby.
Změna
od 11 v 09 UTC do 11 v 11 UTC
Jižní vítr 5 kt
Pravděpodobnost 30% :
Dočasný
od 11 v 10 UTC do 11 v 16 UTC
Skoro jasno ve výšce 4000 ft
Změna
od 11 v 20 UTC do 11 v 23 UTC
Oblačno až skoro zataženo ve výšce 4000 ft

TAF: LJMB 110800Z 1109/1209 36005KT CAVOK BECMG 1109/1111 18005KT PROB30 TEMPO 1110/1116 FEW040 BECMG 1120/1123 BKN040

Stav a předpovědi počasí z více než 4 000 letišť (zprávy METAR a TAF).

Červené a žluté tečky na mapě představují dostupné meteorologické stanice.

Když kurzor umístíte na tečku, zobrazí se název stanice.

Pak kliknutím zobrazíte stav a předpověď počasí.

Chcete-li změnit mapu, kliknutím na zelené tlačítko se znaménkem +mapu přiblížíte, kliknutím na zelené tlačítko se znaménkem – mapu oddálíte a kliknutím na zelené šipky přejdete na sousední mapy.


METAR-TAF: